Laida — EAVE — position and weather

sailwx.info

Track history (hours):
 
Tides and Currents Weather Stations Pressure Air Temp Water Temp Dewpoint Dewpoint Depression Visibility Wind Speed Wind Dir Waves Ship Positions

Laida

Last reported at 2016-Jul-29 09:32 UTC. Time now 2016-Jul-29 12:09 UTC.
Position N 51°54' E 004°22'.

Length 100 m; draft 5 m.

Type: Ship (hazmat cat D). MMSI: 224509000.

Date/timePositionNaut miles runAvg speedWind from/ knotsBaromVisibWave heightAir tempDewpointWater temp
2016-Jul-29 09:32N 51°54' E 004°22'0 0.1
2016-Jul-29 08:33N 51°54' E 004°22'4 4.0
2016-Jul-29 07:33N 51°54' E 004°28'0 0.0
2016-Jul-29 06:26N 51°54' E 004°28'0 0.0
2016-Jul-29 05:26N 51°54' E 004°28'0 0.0
2016-Jul-29 04:32N 51°54' E 004°28'0 0.0
2016-Jul-29 03:26N 51°54' E 004°28'0 0.0
2016-Jul-29 02:32N 51°54' E 004°28'0 0.0
2016-Jul-29 01:29N 51°54' E 004°28'0 0.0
2016-Jul-29 00:32N 51°54' E 004°28'0 0.0
2016-Jul-28 23:29N 51°54' E 004°28'0 0.0
2016-Jul-28 22:32N 51°54' E 004°28'0 0.0
2016-Jul-28 21:32N 51°54' E 004°28'0 0.0
2016-Jul-28 20:32N 51°54' E 004°28'0 0.0
2016-Jul-28 19:32N 51°54' E 004°28'0 0.0
2016-Jul-28 18:32N 51°54' E 004°28'0 0.0
2016-Jul-28 17:32N 51°54' E 004°28'0 0.0
2016-Jul-28 16:32N 51°54' E 004°28'0 0.0
2016-Jul-28 15:32N 51°54' E 004°28'0 0.0
2016-Jul-28 14:32N 51°54' E 004°28'0 0.0
2016-Jul-28 13:32N 51°54' E 004°28'0 0.0
2016-Jul-28 12:32N 51°54' E 004°28'0 0.0
2016-Jul-28 11:32N 51°54' E 004°28'0 0.0
2016-Jul-28 10:32N 51°54' E 004°28'0 0.0
2016-Jul-28 09:29N 51°54' E 004°28'0 0.0
2016-Jul-28 08:29N 51°54' E 004°28'0 0.0
2016-Jul-28 07:32N 51°54' E 004°28'0 0.0
2016-Jul-28 06:32N 51°54' E 004°28'0 0.0
2016-Jul-28 05:32N 51°54' E 004°28'0 0.0
2016-Jul-28 04:32N 51°54' E 004°28'0 0.0
2016-Jul-28 02:32N 51°54' E 004°28'0 0.0
2016-Jul-28 01:29N 51°54' E 004°28'0 0.0
2016-Jul-28 00:29N 51°54' E 004°28'0 0.0
2016-Jul-27 23:32N 51°54' E 004°28'0 0.0
2016-Jul-27 22:32N 51°54' E 004°28'0 0.0
2016-Jul-27 21:32N 51°54' E 004°28'0 0.0
2016-Jul-27 20:32N 51°54' E 004°28'0 0.0
2016-Jul-27 19:32N 51°54' E 004°28'0 0.0
2016-Jul-27 18:32N 51°54' E 004°28'0 0.0
2016-Jul-27 17:32N 51°54' E 004°28'0 0.0
2016-Jul-27 16:29N 51°54' E 004°28'0 0.0
2016-Jul-27 15:32N 51°54' E 004°28'0 0.0
2016-Jul-27 14:32N 51°54' E 004°28'3 2.9
2016-Jul-27 13:33N 51°54' E 004°24'9 8.6
2016-Jul-27 12:34N 51°57' E 004°11'10 9.7
2016-Jul-27 11:34N 52°00' E 003°56'86 9.4
2016-Jul-27 02:23N 52°45' E 001°56'1011.9
2016-Jul-27 01:33N 52°51' E 001°43'1212.3
2016-Jul-27 00:34N 52°59' E 001°27'1211.9
2016-Jul-26 23:33N 53°05' E 001°10'1211.3
2016-Jul-26 22:28N 53°10' E 000°51'1011.4
2016-Jul-26 21:33N 53°18' E 000°41'3911.3
2016-Jul-26 18:10N 53°53' E 000°13'911.6
2016-Jul-26 17:24N 54°01' E 000°06'910.8
2016-Jul-26 16:33N 54°10' E 000°01'1010.2
2016-Jul-26 15:33N 54°18' W 000°09'9 9.4
2016-Jul-26 14:34N 54°26' W 000°17'9 9.3
2016-Jul-26 13:34N 54°33' W 000°27'20 9.6
2016-Jul-26 11:30N 54°41' W 000°59'2 2.3
2016-Jul-26 10:33N 54°42' W 001°01'0 0.0
2016-Jul-26 09:21N 54°42' W 001°01'0 0.0
2016-Jul-26 06:18N 54°42' W 001°01'0 0.0
2016-Jul-26 05:27N 54°42' W 001°01'0 0.0
2016-Jul-26 04:27N 54°42' W 001°01'0 0.0
2016-Jul-25 23:12N 54°42' W 001°01'0 0.0
2016-Jul-25 22:21N 54°42' W 001°01'0 0.0
2016-Jul-25 21:30N 54°42' W 001°01'0 0.0
2016-Jul-25 20:33N 54°42' W 001°01'0 0.0
2016-Jul-25 19:18N 54°42' W 001°01'0 0.0
2016-Jul-25 18:33N 54°42' W 001°01'0 0.0
2016-Jul-25 17:18N 54°42' W 001°01'0 0.0
2016-Jul-25 16:27N 54°42' W 001°01'0 0.0
2016-Jul-25 15:27N 54°42' W 001°01'0 0.0
2016-Jul-25 11:27N 54°42' W 001°01'0 0.0
2016-Jul-25 10:27N 54°42' W 001°01'0 0.0
2016-Jul-25 09:27N 54°42' W 001°01'0 0.0
2016-Jul-25 08:33N 54°42' W 001°01'0 0.0
2016-Jul-25 07:33N 54°42' W 001°01'0 0.0
2016-Jul-25 06:33N 54°42' W 001°01'0 0.0
2016-Jul-25 05:21N 54°42' W 001°01'0 0.0
2016-Jul-25 04:33N 54°42' W 001°01'0 0.0
2016-Jul-25 03:30N 54°42' W 001°01'0 0.0
2016-Jul-24 19:24N 54°42' W 001°01'0 0.0
2016-Jul-24 18:27N 54°42' W 001°01'0 0.0
2016-Jul-24 17:30N 54°42' W 001°01'0 0.1
2016-Jul-24 15:30N 54°42' W 001°02'0 0.0
2016-Jul-24 13:30N 54°42' W 001°02'0 0.0
2016-Jul-24 12:30N 54°42' W 001°02'0 0.0
2016-Jul-24 08:27N 54°42' W 001°01'0 0.0
2016-Jul-24 07:27N 54°42' W 001°01'0 0.0
2016-Jul-24 06:24N 54°42' W 001°01'0 0.0
2016-Jul-24 05:27N 54°42' W 001°01'0 0.0
2016-Jul-24 04:24N 54°42' W 001°01'0 0.0
2016-Jul-24 03:33N 54°42' W 001°01'0 0.1
2016-Jul-24 02:30N 54°42' W 001°01'0 0.0
2016-Jul-24 01:33N 54°42' W 001°02'0 0.0
2016-Jul-24 00:33N 54°42' W 001°02'0 0.0
2016-Jul-23 23:33N 54°42' W 001°01'0 0.0
2016-Jul-23 22:30N 54°42' W 001°02'0 0.1
2016-Jul-23 21:33N 54°42' W 001°01'0 0.1
2016-Jul-23 20:06N 54°42' W 001°01'0 0.0
2016-Jul-23 19:27N 54°42' W 001°01'0 0.0
2016-Jul-23 18:27N 54°42' W 001°01'0 0.0
2016-Jul-23 17:24N 54°42' W 001°01'0 0.0
2016-Jul-23 16:27N 54°42' W 001°01'0 0.1
2016-Jul-23 14:15N 54°42' W 001°01'0 0.0
2016-Jul-23 13:30N 54°42' W 001°02'0 0.0
2016-Jul-23 12:15N 54°42' W 001°01'0 0.0
2016-Jul-23 11:03N 54°42' W 001°01'0 0.0
2016-Jul-23 10:33N 54°42' W 001°01'3 0.1
2016-Jul-21 14:33N 54°41' W 001°05'2210.8
2016-Jul-21 12:33N 54°35' W 000°29'1211.7
2016-Jul-21 11:33N 54°25' W 000°18'1212.4
2016-Jul-21 10:33N 54°15' W 000°07'1312.5
2016-Jul-21 09:32N 54°04' E 000°04'1212.0
2016-Jul-21 08:33N 53°53' E 000°13'1111.4
2016-Jul-21 07:33N 53°45' E 000°26'1210.2
2016-Jul-21 06:24N 53°34' E 000°35'17 9.3
2016-Jul-21 04:33N 53°18' E 000°41'1010.0
2016-Jul-21 03:32N 53°10' E 000°52'1211.9
2016-Jul-21 02:33N 53°05' E 001°10'1313.2
2016-Jul-21 01:34N 52°59' E 001°29'1413.2
2016-Jul-21 00:30N 52°50' E 001°47'37 9.4
2016-Jul-20 20:33N 52°13' E 001°54'9 9.4
2016-Jul-20 19:33N 52°04' E 001°51'10 9.9
2016-Jul-20 18:33N 51°54' E 001°48'1111.0
2016-Jul-20 17:33N 51°43' E 001°49'1111.4
2016-Jul-20 16:33N 51°32' E 001°47'1212.0
2016-Jul-20 15:33N 51°20' E 001°42'1212.0
2016-Jul-20 14:33N 51°08' E 001°39'1712.4
2016-Jul-20 13:10N 50°53' E 001°25'6112.0
2016-Jul-20 08:05N 50°21' E 000°03'712.9
2016-Jul-20 07:34N 50°19' W 000°07'3611.9
2016-Jul-20 04:30N 50°09' W 001°01'34 8.5
2016-Jul-20 00:33N 50°00' W 001°52'9 9.2
2016-Jul-19 23:33N 49°57' W 002°05'1010.5
2016-Jul-19 22:33N 49°55' W 002°21'1111.4
2016-Jul-19 21:34N 49°52' W 002°38'1111.3
2016-Jul-19 20:33N 49°48' W 002°55'1211.6
2016-Jul-19 19:34N 49°43' W 003°10'1211.9
2016-Jul-19 18:34N 49°37' W 003°26'2612.7
2016-Jul-19 16:33N 49°24' W 004°00'1312.7
2016-Jul-19 15:32N 49°17' W 004°17'5111.7
2016-Jul-19 11:09N 48°51' W 005°24'610.3
2016-Jul-19 10:33N 48°47' W 005°32'10 9.9
2016-Jul-19 09:34N 48°41' W 005°43'  
Track history (hours):
 
Tides and Currents Weather Stations Pressure Air Temp Water Temp Dewpoint Dewpoint Depression Visibility Wind Speed Wind Dir Waves Ship Positions

Laida

Last reported at 2016-Jul-29 09:32 UTC. Time now 2016-Jul-29 12:09 UTC.
Position N 51°54' E 004°22'.

Length 100 m; draft 5 m.

Type: Ship (hazmat cat D). MMSI: 224509000.

Date/timePositionNaut miles runAvg speedWind from/ knotsBaromVisibWave heightAir tempDewpointWater temp
2016-Jul-29 09:32N 51°54' E 004°22'0 0.1
2016-Jul-29 08:33N 51°54' E 004°22'4 4.0
2016-Jul-29 07:33N 51°54' E 004°28'0 0.0
2016-Jul-29 06:26N 51°54' E 004°28'0 0.0
2016-Jul-29 05:26N 51°54' E 004°28'0 0.0
2016-Jul-29 04:32N 51°54' E 004°28'0 0.0
2016-Jul-29 03:26N 51°54' E 004°28'0 0.0
2016-Jul-29 02:32N 51°54' E 004°28'0 0.0
2016-Jul-29 01:29N 51°54' E 004°28'0 0.0
2016-Jul-29 00:32N 51°54' E 004°28'0 0.0
2016-Jul-28 23:29N 51°54' E 004°28'0 0.0
2016-Jul-28 22:32N 51°54' E 004°28'0 0.0
2016-Jul-28 21:32N 51°54' E 004°28'0 0.0
2016-Jul-28 20:32N 51°54' E 004°28'0 0.0
2016-Jul-28 19:32N 51°54' E 004°28'0 0.0
2016-Jul-28 18:32N 51°54' E 004°28'0 0.0
2016-Jul-28 17:32N 51°54' E 004°28'0 0.0
2016-Jul-28 16:32N 51°54' E 004°28'0 0.0
2016-Jul-28 15:32N 51°54' E 004°28'0 0.0
2016-Jul-28 14:32N 51°54' E 004°28'0 0.0
2016-Jul-28 13:32N 51°54' E 004°28'0 0.0
2016-Jul-28 12:32N 51°54' E 004°28'0 0.0
2016-Jul-28 11:32N 51°54' E 004°28'0 0.0
2016-Jul-28 10:32N 51°54' E 004°28'0 0.0
2016-Jul-28 09:29N 51°54' E 004°28'0 0.0
2016-Jul-28 08:29N 51°54' E 004°28'0 0.0
2016-Jul-28 07:32N 51°54' E 004°28'0 0.0
2016-Jul-28 06:32N 51°54' E 004°28'0 0.0
2016-Jul-28 05:32N 51°54' E 004°28'0 0.0
2016-Jul-28 04:32N 51°54' E 004°28'0 0.0
2016-Jul-28 02:32N 51°54' E 004°28'0 0.0
2016-Jul-28 01:29N 51°54' E 004°28'0 0.0
2016-Jul-28 00:29N 51°54' E 004°28'0 0.0
2016-Jul-27 23:32N 51°54' E 004°28'0 0.0
2016-Jul-27 22:32N 51°54' E 004°28'0 0.0
2016-Jul-27 21:32N 51°54' E 004°28'0 0.0
2016-Jul-27 20:32N 51°54' E 004°28'0 0.0
2016-Jul-27 19:32N 51°54' E 004°28'0 0.0
2016-Jul-27 18:32N 51°54' E 004°28'0 0.0
2016-Jul-27 17:32N 51°54' E 004°28'0 0.0
2016-Jul-27 16:29N 51°54' E 004°28'0 0.0
2016-Jul-27 15:32N 51°54' E 004°28'0 0.0
2016-Jul-27 14:32N 51°54' E 004°28'3 2.9
2016-Jul-27 13:33N 51°54' E 004°24'9 8.6
2016-Jul-27 12:34N 51°57' E 004°11'10 9.7
2016-Jul-27 11:34N 52°00' E 003°56'86 9.4
2016-Jul-27 02:23N 52°45' E 001°56'1011.9
2016-Jul-27 01:33N 52°51' E 001°43'1212.3
2016-Jul-27 00:34N 52°59' E 001°27'1211.9
2016-Jul-26 23:33N 53°05' E 001°10'1211.3
2016-Jul-26 22:28N 53°10' E 000°51'1011.4
2016-Jul-26 21:33N 53°18' E 000°41'3911.3
2016-Jul-26 18:10N 53°53' E 000°13'911.6
2016-Jul-26 17:24N 54°01' E 000°06'910.8
2016-Jul-26 16:33N 54°10' E 000°01'1010.2
2016-Jul-26 15:33N 54°18' W 000°09'9 9.4
2016-Jul-26 14:34N 54°26' W 000°17'9 9.3
2016-Jul-26 13:34N 54°33' W 000°27'20 9.6
2016-Jul-26 11:30N 54°41' W 000°59'2 2.3
2016-Jul-26 10:33N 54°42' W 001°01'0 0.0
2016-Jul-26 09:21N 54°42' W 001°01'0 0.0
2016-Jul-26 06:18N 54°42' W 001°01'0 0.0
2016-Jul-26 05:27N 54°42' W 001°01'0 0.0
2016-Jul-26 04:27N 54°42' W 001°01'0 0.0
2016-Jul-25 23:12N 54°42' W 001°01'0 0.0
2016-Jul-25 22:21N 54°42' W 001°01'0 0.0
2016-Jul-25 21:30N 54°42' W 001°01'0 0.0
2016-Jul-25 20:33N 54°42' W 001°01'0 0.0
2016-Jul-25 19:18N 54°42' W 001°01'0 0.0
2016-Jul-25 18:33N 54°42' W 001°01'0 0.0
2016-Jul-25 17:18N 54°42' W 001°01'0 0.0
2016-Jul-25 16:27N 54°42' W 001°01'0 0.0
2016-Jul-25 15:27N 54°42' W 001°01'0 0.0
2016-Jul-25 11:27N 54°42' W 001°01'0 0.0
2016-Jul-25 10:27N 54°42' W 001°01'0 0.0
2016-Jul-25 09:27N 54°42' W 001°01'0 0.0
2016-Jul-25 08:33N 54°42' W 001°01'0 0.0
2016-Jul-25 07:33N 54°42' W 001°01'0 0.0
2016-Jul-25 06:33N 54°42' W 001°01'0 0.0
2016-Jul-25 05:21N 54°42' W 001°01'0 0.0
2016-Jul-25 04:33N 54°42' W 001°01'0 0.0
2016-Jul-25 03:30N 54°42' W 001°01'0 0.0
2016-Jul-24 19:24N 54°42' W 001°01'0 0.0
2016-Jul-24 18:27N 54°42' W 001°01'0 0.0
2016-Jul-24 17:30N 54°42' W 001°01'0 0.1
2016-Jul-24 15:30N 54°42' W 001°02'0 0.0
2016-Jul-24 13:30N 54°42' W 001°02'0 0.0
2016-Jul-24 12:30N 54°42' W 001°02'0 0.0
2016-Jul-24 08:27N 54°42' W 001°01'0 0.0
2016-Jul-24 07:27N 54°42' W 001°01'0 0.0
2016-Jul-24 06:24N 54°42' W 001°01'0 0.0
2016-Jul-24 05:27N 54°42' W 001°01'0 0.0
2016-Jul-24 04:24N 54°42' W 001°01'0 0.0
2016-Jul-24 03:33N 54°42' W 001°01'0 0.1
2016-Jul-24 02:30N 54°42' W 001°01'0 0.0
2016-Jul-24 01:33N 54°42' W 001°02'0 0.0
2016-Jul-24 00:33N 54°42' W 001°02'0 0.0
2016-Jul-23 23:33N 54°42' W 001°01'0 0.0
2016-Jul-23 22:30N 54°42' W 001°02'0 0.1
2016-Jul-23 21:33N 54°42' W 001°01'0 0.1
2016-Jul-23 20:06N 54°42' W 001°01'0 0.0
2016-Jul-23 19:27N 54°42' W 001°01'0 0.0
2016-Jul-23 18:27N 54°42' W 001°01'0 0.0
2016-Jul-23 17:24N 54°42' W 001°01'0 0.0
2016-Jul-23 16:27N 54°42' W 001°01'0 0.1
2016-Jul-23 14:15N 54°42' W 001°01'0 0.0
2016-Jul-23 13:30N 54°42' W 001°02'0 0.0
2016-Jul-23 12:15N 54°42' W 001°01'0 0.0
2016-Jul-23 11:03N 54°42' W 001°01'0 0.0
2016-Jul-23 10:33N 54°42' W 001°01'3 0.1
2016-Jul-21 14:33N 54°41' W 001°05'2210.8
2016-Jul-21 12:33N 54°35' W 000°29'1211.7
2016-Jul-21 11:33N 54°25' W 000°18'1212.4
2016-Jul-21 10:33N 54°15' W 000°07'1312.5
2016-Jul-21 09:32N 54°04' E 000°04'1212.0
2016-Jul-21 08:33N 53°53' E 000°13'1111.4
2016-Jul-21 07:33N 53°45' E 000°26'1210.2
2016-Jul-21 06:24N 53°34' E 000°35'17 9.3
2016-Jul-21 04:33N 53°18' E 000°41'1010.0
2016-Jul-21 03:32N 53°10' E 000°52'1211.9
2016-Jul-21 02:33N 53°05' E 001°10'1313.2
2016-Jul-21 01:34N 52°59' E 001°29'1413.2
2016-Jul-21 00:30N 52°50' E 001°47'37 9.4
2016-Jul-20 20:33N 52°13' E 001°54'9 9.4
2016-Jul-20 19:33N 52°04' E 001°51'10 9.9
2016-Jul-20 18:33N 51°54' E 001°48'1111.0
2016-Jul-20 17:33N 51°43' E 001°49'1111.4
2016-Jul-20 16:33N 51°32' E 001°47'1212.0
2016-Jul-20 15:33N 51°20' E 001°42'1212.0
2016-Jul-20 14:33N 51°08' E 001°39'1712.4
2016-Jul-20 13:10N 50°53' E 001°25'6112.0
2016-Jul-20 08:05N 50°21' E 000°03'712.9
2016-Jul-20 07:34N 50°19' W 000°07'3611.9
2016-Jul-20 04:30N 50°09' W 001°01'34 8.5
2016-Jul-20 00:33N 50°00' W 001°52'9 9.2
2016-Jul-19 23:33N 49°57' W 002°05'1010.5
2016-Jul-19 22:33N 49°55' W 002°21'1111.4
2016-Jul-19 21:34N 49°52' W 002°38'1111.3
2016-Jul-19 20:33N 49°48' W 002°55'1211.6
2016-Jul-19 19:34N 49°43' W 003°10'1211.9
2016-Jul-19 18:34N 49°37' W 003°26'2612.7
2016-Jul-19 16:33N 49°24' W 004°00'1312.7
2016-Jul-19 15:32N 49°17' W 004°17'5111.7
2016-Jul-19 11:09N 48°51' W 005°24'610.3
2016-Jul-19 10:33N 48°47' W 005°32'10 9.9
2016-Jul-19 09:34N 48°41' W 005°43'  

Dump ship's entire track history